createdAt,value
2023-04-18T00:03:05.501Z,13.6
2023-04-18T00:08:01.415Z,13.8
2023-04-18T00:13:01.473Z,13.0
2023-04-18T00:18:01.482Z,13.7
2023-04-18T00:23:01.915Z,14.8
2023-04-18T00:28:01.554Z,16.2
2023-04-18T00:33:01.513Z,16.4
2023-04-18T00:38:06.353Z,18.6
2023-04-18T00:44:06.451Z,20.0
2023-04-18T00:49:01.690Z,20.8
2023-04-18T00:54:01.942Z,21.6
2023-04-18T00:59:01.414Z,22.6
2023-04-18T01:04:02.104Z,23.2
2023-04-18T01:09:02.054Z,24.0
2023-04-18T01:14:07.234Z,24.6
2023-04-18T01:19:01.398Z,25.1
2023-04-18T01:24:11.436Z,25.9
2023-04-18T01:29:01.902Z,26.2
2023-04-18T01:34:01.383Z,26.3
2023-04-18T01:39:03.753Z,26.7
2023-04-18T01:44:06.561Z,27.0
2023-04-18T01:49:06.776Z,26.6
2023-04-18T01:54:06.470Z,26.4
2023-04-18T01:59:01.394Z,26.4
2023-04-18T02:04:02.780Z,26.4
2023-04-18T02:09:06.381Z,26.6
2023-04-18T02:14:01.313Z,26.6
2023-04-18T02:19:01.387Z,26.5
2023-04-18T02:24:01.541Z,26.5
2023-04-18T02:29:06.887Z,25.8
2023-04-18T02:34:01.275Z,25.4
2023-04-18T02:39:06.496Z,25.4
2023-04-18T02:44:06.973Z,25.1
2023-04-18T02:49:06.686Z,25.0
2023-04-18T02:54:06.321Z,25.7
2023-04-18T02:59:07.092Z,25.9
2023-04-18T03:04:01.978Z,26.2
2023-04-18T03:14:01.446Z,26.3
2023-04-18T03:19:06.388Z,26.1
2023-04-18T03:24:01.272Z,26.2
2023-04-18T03:29:01.803Z,26.0
2023-04-18T03:34:01.400Z,26.2
2023-04-18T03:39:01.588Z,26.2
2023-04-18T03:44:06.346Z,26.0
2023-04-18T03:49:01.456Z,25.9
2023-04-18T03:54:01.329Z,26.0
2023-04-18T03:59:07.437Z,25.9
2023-04-18T04:04:01.959Z,25.8
2023-04-18T04:09:01.461Z,25.8
2023-04-18T04:14:01.358Z,25.4
2023-04-18T04:19:01.348Z,25.2
2023-04-18T04:24:06.384Z,25.2
2023-04-18T04:29:01.315Z,24.8
2023-04-18T04:34:01.445Z,24.8
2023-04-18T04:39:01.617Z,25.1
2023-04-18T04:44:07.836Z,25.3
2023-04-18T04:49:01.445Z,25.1
2023-04-18T04:54:06.455Z,25.2
2023-04-18T04:59:06.444Z,24.6
2023-04-18T05:04:06.717Z,24.2
2023-04-18T05:09:01.626Z,23.8
2023-04-18T05:14:06.477Z,24.3
2023-04-18T05:24:01.370Z,24.1
2023-04-18T05:34:01.532Z,23.6
2023-04-18T05:39:01.458Z,22.2
2023-04-18T05:44:06.482Z,21.8
2023-04-18T05:49:02.089Z,21.3
2023-04-18T05:54:10.797Z,21.1
2023-04-18T05:59:01.337Z,20.6
2023-04-18T06:04:06.876Z,21.0
2023-04-18T06:09:01.342Z,21.5
2023-04-18T06:14:01.613Z,22.3
2023-04-18T06:19:01.866Z,23.1
2023-04-18T06:24:01.430Z,24.2
2023-04-18T06:29:07.195Z,24.7
2023-04-18T06:34:06.474Z,25.6
2023-04-18T06:39:06.381Z,25.3
2023-04-18T06:44:06.344Z,25.1
2023-04-18T06:49:06.688Z,24.9
2023-04-18T06:54:01.331Z,24.5
2023-04-18T06:59:06.309Z,23.5
2023-04-18T07:04:02.297Z,23.7
2023-04-18T07:09:02.107Z,23.5
2023-04-18T07:14:06.355Z,23.5
2023-04-18T07:19:01.281Z,23.9
2023-04-18T07:24:01.458Z,24.3
2023-04-18T07:29:02.303Z,24.0
2023-04-18T07:34:01.353Z,24.0
2023-04-18T07:44:07.117Z,23.5
2023-04-18T07:49:06.284Z,23.7
2023-04-18T07:54:06.487Z,23.9
2023-04-18T07:59:06.376Z,24.2
2023-04-18T08:04:02.710Z,24.2
2023-04-18T08:09:06.363Z,23.8
2023-04-18T08:14:06.309Z,23.7
2023-04-18T08:19:01.279Z,24.1
2023-04-18T08:24:06.586Z,23.8
2023-04-18T08:29:01.272Z,24.0
2023-04-18T08:34:05.369Z,24.6
2023-04-18T08:39:01.800Z,24.6
2023-04-18T08:44:01.706Z,24.7
2023-04-18T08:49:06.532Z,24.7
2023-04-18T08:54:06.305Z,24.5
2023-04-18T08:59:02.255Z,24.7
2023-04-18T09:04:01.783Z,24.8
2023-04-18T09:09:06.281Z,24.5
2023-04-18T09:14:01.340Z,25.0
2023-04-18T09:19:01.323Z,25.8
2023-04-18T09:24:01.793Z,25.7
2023-04-18T09:34:06.289Z,26.1
2023-04-18T09:39:06.479Z,26.0
2023-04-18T09:44:06.313Z,25.8
2023-04-18T09:49:11.364Z,26.1
2023-04-18T09:54:01.342Z,26.4
2023-04-18T09:59:01.582Z,26.5
2023-04-18T10:04:01.997Z,26.5
2023-04-18T10:09:01.301Z,26.7
2023-04-18T10:15:02.226Z,26.7
2023-04-18T10:20:03.424Z,26.4
2023-04-18T10:25:10.255Z,26.4
2023-04-18T10:30:02.156Z,26.1
2023-04-18T10:35:01.920Z,27.3
2023-04-18T10:40:02.361Z,27.1
2023-04-18T10:45:24.065Z,27.4
2023-04-18T10:50:14.527Z,27.0
2023-04-18T10:55:01.373Z,27.6
2023-04-18T11:05:01.477Z,26.7
2023-04-18T11:10:08.140Z,25.9
2023-04-18T11:15:10.727Z,26.3
2023-04-18T11:20:01.288Z,26.0
2023-04-18T11:25:01.483Z,26.0
2023-04-18T11:30:07.326Z,26.0
2023-04-18T11:35:06.317Z,26.5
2023-04-18T11:40:01.467Z,26.7
2023-04-18T11:45:09.390Z,26.5
2023-04-18T11:50:02.548Z,27.3
2023-04-18T11:55:06.486Z,27.2
2023-04-18T12:00:02.114Z,27.5
2023-04-18T12:05:02.763Z,27.6
2023-04-18T12:10:06.711Z,27.8
2023-04-18T12:15:07.391Z,26.7
2023-04-18T12:20:01.327Z,26.1
2023-04-18T12:25:08.851Z,26.0
2023-04-18T12:30:11.665Z,26.0
2023-04-18T12:35:01.305Z,25.6
2023-04-18T12:40:01.332Z,26.1
2023-04-18T12:45:06.340Z,26.3
2023-04-18T12:50:06.447Z,26.3
2023-04-18T12:55:01.477Z,26.1
2023-04-18T13:00:04.270Z,26.2
2023-04-18T13:06:06.500Z,26.0
2023-04-18T13:11:01.268Z,26.2
2023-04-18T13:16:06.682Z,26.0
2023-04-18T13:21:06.407Z,26.1
2023-04-18T13:26:06.643Z,24.8
2023-04-18T13:31:01.362Z,23.7
2023-04-18T13:36:01.299Z,23.0
2023-04-18T13:41:14.159Z,22.8
2023-04-18T13:46:06.505Z,22.1
2023-04-18T13:51:01.539Z,24.9
2023-04-18T13:56:01.337Z,27.2
2023-04-18T14:01:01.543Z,29.4
2023-04-18T14:06:08.635Z,29.7
2023-04-18T14:11:01.301Z,30.2
2023-04-18T14:16:03.674Z,27.9
2023-04-18T14:21:06.343Z,26.1
2023-04-18T14:26:06.457Z,23.9
2023-04-18T14:36:07.851Z,22.0
2023-04-18T14:41:06.290Z,23.0
2023-04-18T14:46:01.334Z,22.9
2023-04-18T14:51:13.095Z,22.8
2023-04-18T15:01:07.523Z,23.1
2023-04-18T15:06:01.985Z,22.4
2023-04-18T15:11:06.778Z,22.3
2023-04-18T15:16:02.030Z,22.4
2023-04-18T15:21:01.475Z,22.4
2023-04-18T15:26:06.357Z,22.7
2023-04-18T15:31:01.366Z,22.1
2023-04-18T15:36:06.713Z,22.2
2023-04-18T15:41:07.102Z,22.4
2023-04-18T15:46:01.528Z,22.6
2023-04-18T15:51:06.601Z,23.0
2023-04-18T15:56:06.522Z,23.6
2023-04-18T16:01:01.513Z,24.3
2023-04-18T16:06:02.250Z,24.6
2023-04-18T16:11:01.394Z,24.4
2023-04-18T16:16:01.812Z,23.7
2023-04-18T16:21:01.345Z,23.7
2023-04-18T16:26:01.263Z,23.3
2023-04-18T16:36:01.793Z,23.3
2023-04-18T16:41:01.254Z,24.1
2023-04-18T16:46:06.543Z,24.7
2023-04-18T16:51:01.360Z,24.8
2023-04-18T16:56:01.419Z,25.2
2023-04-18T17:01:01.301Z,24.6
2023-04-18T17:06:01.288Z,24.6
2023-04-18T17:11:06.459Z,24.2
2023-04-18T17:16:06.543Z,23.1
2023-04-18T17:21:05.856Z,22.7
2023-04-18T17:26:06.401Z,22.9
2023-04-18T17:42:01.632Z,23.7
2023-04-18T17:47:06.328Z,23.6
2023-04-18T17:52:01.513Z,23.4
2023-04-18T17:57:01.483Z,23.6
2023-04-18T18:02:06.890Z,24.0
2023-04-18T18:07:01.441Z,24.7
2023-04-18T18:12:06.536Z,25.0
2023-04-18T18:17:06.591Z,25.9
2023-04-18T18:22:02.083Z,25.5
2023-04-18T18:27:06.384Z,25.2
2023-04-18T18:32:06.373Z,24.5
2023-04-18T18:37:01.264Z,24.9
2023-04-18T18:42:06.433Z,24.6
2023-04-18T18:47:06.540Z,24.9
2023-04-18T18:57:01.282Z,24.9
2023-04-18T19:02:01.761Z,24.2
2023-04-18T19:07:07.237Z,23.9
2023-04-18T19:12:01.671Z,23.6
2023-04-18T19:17:01.350Z,24.2
2023-04-18T19:22:07.118Z,24.7
2023-04-18T19:27:06.284Z,25.9
2023-04-18T19:32:01.829Z,26.5
2023-04-18T19:37:06.282Z,27.3
2023-04-18T19:42:06.439Z,27.0
2023-04-18T19:47:01.641Z,26.5
2023-04-18T19:57:01.275Z,26.1
2023-04-18T20:02:07.904Z,26.3
2023-04-18T20:07:06.340Z,27.1
2023-04-18T20:12:01.292Z,27.7
2023-04-18T20:17:01.279Z,27.7
2023-04-18T20:27:04.728Z,27.9
2023-04-18T20:32:01.265Z,27.7
2023-04-18T20:37:02.262Z,27.5
2023-04-18T20:42:01.329Z,28.1
2023-04-18T20:52:06.928Z,27.6
2023-04-18T20:57:01.301Z,27.7
2023-04-18T21:02:02.028Z,27.8
2023-04-18T21:07:01.370Z,26.9
2023-04-18T21:12:06.444Z,26.7
2023-04-18T21:17:01.513Z,26.5
2023-04-18T21:22:07.111Z,26.2
2023-04-18T21:27:01.277Z,25.8
2023-04-18T21:32:01.506Z,26.0
2023-04-18T21:37:02.023Z,26.0
2023-04-18T21:43:06.370Z,26.5
2023-04-18T21:48:06.646Z,26.6
2023-04-18T21:53:01.265Z,26.8
2023-04-18T21:58:01.280Z,26.2
2023-04-18T22:03:01.777Z,26.2
2023-04-18T22:08:01.623Z,26.3
2023-04-18T22:13:02.505Z,26.2
2023-04-18T22:18:01.504Z,26.4
2023-04-18T22:23:04.663Z,27.2
2023-04-18T22:28:01.415Z,27.0
2023-04-18T22:33:01.680Z,26.6
2023-04-18T22:38:01.270Z,27.2
2023-04-18T22:43:01.363Z,27.0
2023-04-18T22:48:01.422Z,27.2
2023-04-18T22:53:01.966Z,27.9
2023-04-18T22:58:06.391Z,27.3
2023-04-18T23:03:01.624Z,27.0
2023-04-18T23:08:06.346Z,26.9
2023-04-18T23:18:01.664Z,26.0
2023-04-18T23:23:01.372Z,26.0
2023-04-18T23:28:01.523Z,24.6
2023-04-18T23:33:02.469Z,23.6
2023-04-18T23:38:01.376Z,22.3
2023-04-18T23:43:01.279Z,21.3
2023-04-18T23:48:01.863Z,20.8
2023-04-18T23:53:06.408Z,20.7
2023-04-18T23:58:01.332Z,19.8
